Strona główna
METAR-TAF:

METAR-TAF

Lotnisko :

Port lotniczy Pakxe

Pakxe, Laos

Szerokość geograficzna: 15-08-02N, Długość geograficzna: 105-46-55E, wysokość: 107 m

Aktualna obserwacja pogody

Raport powstał 58 minut temu, godzina 06:00 UTC
Wiatr 8 kt od północ
Temperatura 33°C
Wilgotność 28%
Ciśnienie 1017 hPa
Widzialność: 7000 m

METAR: VLPS 220600Z 36008KT 7000 NSC 33/12 Q1017 NOSIG

czas: 13:58 (06:58 UTC)

Prognoza

Raport powstał 1 godzina i 58 minut temu, godzina 05:00 UTC
Prognoza ważna od 22 godzina 06 UTC do 23 godzina 06 UTC
Wiatr 6 kt od południowy zachód
Widzialność: 8000 m
Mało chmury na wysokości 2000 ft
Mało chmury na wysokości 20000 ft

TAF: VLPS 220500Z 2206/2306 22006KT 8000 FEW020 FEW200

Obserwacja i prognoza pogody dla ponad 4000 lotnisk (raport METAR i TAF).

Dostępne stacje oznaczono żółtymi i czerwonymi punktami na mapie.

Najedź kursorem aby zobaczyć nazwę stacji.

Kliknij aby zobaczyć obserwacje i prognozy pogody.

Aby zmienić mapę: kliknij na zielony przycisk z czarnym krzyżykiem, aby powiększyć; na zielony przycisk z myślnikiem, aby pomniejszyć; na zielone strzałki, aby przejść do map sąsiednich.


METAR-TAF: